Time;durP1;ratioP1;P1;durP2;ratioP2;P2;SDS_P1;SDS_P2;PMS_P1;PMS_P2;Temp;Humidity;BMP_temperature;BMP_pressure;BME280_temperature;BME280_humidity;BME280_pressure;Samples;Min_cycle;Max_cycle;Signal;HPM_P1;HPM_P2
2022/04/03 00:00:45;;;;;;;0.80;0.60;;;3.40;99.90;;;;;;5014858;28;20176;-71
2022/04/03 00:03:11;;;;;;;0.70;0.50;;;3.40;99.90;;;;;;5014752;28;20202;-71
2022/04/03 00:05:42;;;;;;;0.70;0.50;;;3.40;99.90;;;;;;5014934;28;20195;-71
2022/04/03 00:08:08;;;;;;;0.70;0.50;;;3.40;99.90;;;;;;5014498;28;20526;-71
2022/04/03 00:10:35;;;;;;;2.20;2.10;;;3.40;99.90;;;;;;5014661;28;20978;-71
2022/04/03 00:13:01;;;;;;;0.70;0.50;;;3.40;99.90;;;;;;5014626;28;20501;-71
2022/04/03 00:15:27;;;;;;;0.70;0.50;;;3.40;99.90;;;;;;5013390;28;20471;-71
2022/04/03 00:17:52;;;;;;;0.70;0.50;;;3.40;99.90;;;;;;5014406;28;20836;-70
2022/04/03 00:20:19;;;;;;;0.70;0.60;;;3.40;99.90;;;;;;5014267;28;20255;-71
2022/04/03 00:22:48;;;;;;;0.80;0.60;;;3.40;99.90;;;;;;5014596;28;20207;-71
2022/04/03 00:25:14;;;;;;;0.70;0.50;;;3.40;99.90;;;;;;5014130;28;20433;-70
2022/04/03 00:27:40;;;;;;;0.70;0.50;;;3.40;99.90;;;;;;5013948;28;20777;-70
2022/04/03 00:30:07;;;;;;;0.70;0.50;;;3.40;99.90;;;;;;5013027;28;20430;-71
2022/04/03 00:32:32;;;;;;;0.70;0.50;;;3.40;99.90;;;;;;5014277;28;20582;-70
2022/04/03 00:34:58;;;;;;;0.70;0.60;;;3.40;99.90;;;;;;5014014;28;20420;-70
2022/04/03 00:37:23;;;;;;;0.70;0.50;;;3.40;99.90;;;;;;5013722;28;20642;-70
2022/04/03 00:39:49;;;;;;;0.70;0.50;;;3.40;99.90;;;;;;5014054;28;20172;-70
2022/04/03 00:42:15;;;;;;;0.70;0.50;;;3.50;99.90;;;;;;5013107;28;20662;-71
2022/04/03 00:44:40;;;;;;;0.70;0.50;;;3.50;99.90;;;;;;5014178;28;20179;-71
2022/04/03 00:47:06;;;;;;;0.70;0.50;;;3.50;99.90;;;;;;5013909;28;20176;-72
2022/04/03 00:49:32;;;;;;;0.70;0.50;;;3.50;99.90;;;;;;5013024;28;20668;-72
2022/04/03 00:51:58;;;;;;;0.70;0.50;;;3.50;99.90;;;;;;5014222;28;20487;-71
2022/04/03 00:54:24;;;;;;;0.70;0.50;;;3.50;99.90;;;;;;5012815;28;20812;-71
2022/04/03 00:56:50;;;;;;;0.70;0.50;;;3.50;99.90;;;;;;5013584;28;20458;-71
2022/04/03 00:59:16;;;;;;;0.70;0.60;;;3.50;99.90;;;;;;5013782;28;20251;-71
2022/04/03 01:01:43;;;;;;;0.70;0.50;;;3.50;99.90;;;;;;5013695;28;20658;-71
2022/04/03 01:04:09;;;;;;;0.70;0.50;;;3.50;99.90;;;;;;5013623;28;20196;-71
2022/04/03 01:06:35;;;;;;;0.70;0.50;;;3.50;99.90;;;;;;5013597;28;20939;-71
2022/04/03 01:09:02;;;;;;;0.80;0.77;;;3.50;99.90;;;;;;5013435;28;20403;-71
2022/04/03 01:11:28;;;;;;;0.70;0.50;;;3.50;99.90;;;;;;5013446;28;20776;-71
2022/04/03 01:13:54;;;;;;;0.70;0.50;;;3.50;99.90;;;;;;5013397;28;20406;-71
2022/04/03 01:16:19;;;;;;;0.70;0.50;;;3.50;99.90;;;;;;5013496;28;20427;-71
2022/04/03 01:18:46;;;;;;;0.80;0.70;;;3.50;99.90;;;;;;5013373;28;20399;-71
2022/04/03 01:21:11;;;;;;;0.80;0.60;;;3.40;99.90;;;;;;5013522;28;20173;-71
2022/04/03 01:23:37;;;;;;;0.70;0.50;;;3.40;99.90;;;;;;5013213;28;20451;-71
2022/04/03 01:26:03;;;;;;;0.70;0.50;;;3.40;99.90;;;;;;5013192;28;20223;-71
2022/04/03 01:28:29;;;;;;;1.13;1.03;;;3.40;99.90;;;;;;5013056;28;20211;-71
2022/04/03 01:30:55;;;;;;;0.70;0.50;;;3.40;99.90;;;;;;5013126;28;20168;-71
2022/04/03 01:33:20;;;;;;;0.70;0.50;;;3.40;99.90;;;;;;5013367;28;20971;-71
2022/04/03 01:35:46;;;;;;;0.70;0.50;;;3.40;99.90;;;;;;5013399;28;21019;-71
2022/04/03 01:38:12;;;;;;;0.70;0.50;;;3.40;99.90;;;;;;5012739;28;20164;-71
2022/04/03 01:40:37;;;;;;;0.70;0.50;;;3.30;99.90;;;;;;5011823;28;20239;-71
2022/04/03 01:43:07;;;;;;;0.70;0.50;;;3.30;99.90;;;;;;5013123;28;20203;-71
2022/04/03 01:45:37;;;;;;;0.70;0.50;;;3.30;99.90;;;;;;5012820;28;20212;-71
2022/04/03 01:48:05;;;;;;;0.70;0.50;;;3.30;99.90;;;;;;5011333;28;20420;-71
2022/04/03 01:50:30;;;;;;;0.70;0.50;;;3.30;99.90;;;;;;5012778;28;20399;-71
2022/04/03 01:52:56;;;;;;;0.70;0.50;;;3.30;99.90;;;;;;5012630;28;20402;-71
2022/04/03 01:55:24;;;;;;;0.70;0.50;;;3.30;99.90;;;;;;5012909;28;20208;-71
2022/04/03 01:57:49;;;;;;;0.70;0.50;;;3.30;99.90;;;;;;5012555;28;20251;-71
2022/04/03 02:00:15;;;;;;;0.77;0.50;;;3.30;99.90;;;;;;5011494;28;20439;-71
2022/04/03 02:02:41;;;;;;;1.13;1.00;;;3.30;99.90;;;;;;5012876;28;20246;-72
2022/04/03 02:05:07;;;;;;;0.70;0.50;;;3.20;99.90;;;;;;5012728;28;20912;-71
2022/04/03 02:07:33;;;;;;;0.70;0.50;;;3.20;99.90;;;;;;5012449;28;20705;-71
2022/04/03 02:10:04;;;;;;;0.70;0.50;;;3.20;99.90;;;;;;5011542;28;20415;-70
2022/04/03 02:12:29;;;;;;;0.70;0.50;;;3.20;99.90;;;;;;5012359;28;20820;-71
2022/04/03 02:14:56;;;;;;;0.70;0.50;;;3.20;99.90;;;;;;5012399;28;20423;-70
2022/04/03 02:17:21;;;;;;;0.70;0.60;;;3.20;99.90;;;;;;5012152;28;20722;-71
2022/04/03 02:19:47;;;;;;;0.70;0.50;;;3.20;99.90;;;;;;5012700;28;20494;-71
2022/04/03 02:22:14;;;;;;;0.70;0.50;;;3.20;99.90;;;;;;5012480;28;20213;-71
2022/04/03 02:24:40;;;;;;;0.70;0.50;;;3.20;99.90;;;;;;5012208;28;20195;-70
2022/04/03 02:27:06;;;;;;;0.70;0.50;;;3.20;99.90;;;;;;5010773;28;20411;-70
2022/04/03 02:29:32;;;;;;;0.70;0.60;;;3.20;99.90;;;;;;5012362;28;20699;-71
2022/04/03 02:31:58;;;;;;;1.00;0.90;;;3.20;99.90;;;;;;5012555;28;20407;-71
2022/04/03 02:34:26;;;;;;;0.70;0.50;;;3.20;99.90;;;;;;5012352;28;20172;-70
2022/04/03 02:36:52;;;;;;;0.70;0.50;;;3.10;99.90;;;;;;5012105;28;20423;-68
2022/04/03 02:39:17;;;;;;;0.70;0.50;;;3.10;99.90;;;;;;5011957;28;20403;-71
2022/04/03 02:41:43;;;;;;;1.23;1.13;;;3.10;99.90;;;;;;5011283;28;20419;-70
2022/04/03 02:44:09;;;;;;;0.70;0.50;;;3.10;99.90;;;;;;5011163;28;20196;-71
2022/04/03 02:46:36;;;;;;;0.70;0.50;;;3.10;99.90;;;;;;5011074;28;20238;-70
2022/04/03 02:49:02;;;;;;;0.70;0.50;;;3.00;99.90;;;;;;5012025;28;20400;-70
2022/04/03 02:51:27;;;;;;;0.80;0.57;;;3.00;99.90;;;;;;5012072;28;20399;-71
2022/04/03 02:53:53;;;;;;;0.70;0.50;;;3.00;99.90;;;;;;5010731;28;20485;-71
2022/04/03 02:56:18;;;;;;;0.70;0.50;;;3.00;99.90;;;;;;5012261;28;20188;-71
2022/04/03 02:58:44;;;;;;;0.70;0.50;;;3.00;99.90;;;;;;5012005;28;20172;-71
2022/04/03 03:01:10;;;;;;;0.70;0.50;;;3.00;99.90;;;;;;5010886;28;20581;-71
2022/04/03 03:03:35;;;;;;;0.70;0.50;;;2.90;99.90;;;;;;5011902;28;20211;-71
2022/04/03 03:06:02;;;;;;;0.90;0.60;;;2.90;99.90;;;;;;5011899;28;20218;-71
2022/04/03 03:08:28;;;;;;;0.70;0.60;;;2.90;99.90;;;;;;5011607;28;20519;-71
2022/04/03 03:10:53;;;;;;;0.73;0.57;;;2.90;99.90;;;;;;5011912;28;20486;-71
2022/04/03 03:13:19;;;;;;;0.70;0.50;;;2.90;99.90;;;;;;5014295;28;20223;-69
2022/04/03 03:15:44;;;;;;;0.80;0.63;;;2.80;99.90;;;;;;5015599;28;20192;-69
2022/04/03 03:18:10;;;;;;;1.60;0.63;;;2.80;99.90;;;;;;5015392;28;20180;-69
2022/04/03 03:20:35;;;;;;;0.70;0.50;;;2.80;99.90;;;;;;5015593;28;20177;-70
2022/04/03 03:23:01;;;;;;;0.70;0.50;;;2.70;99.90;;;;;;5014241;28;20577;-70
2022/04/03 03:25:29;;;;;;;0.70;0.50;;;2.70;99.90;;;;;;5015413;28;20192;-70
2022/04/03 03:27:55;;;;;;;0.70;0.50;;;2.70;99.90;;;;;;5014007;28;20523;-69
2022/04/03 03:30:21;;;;;;;1.10;1.00;;;2.70;99.90;;;;;;5015424;28;20418;-68
2022/04/03 03:32:47;;;;;;;0.70;0.47;;;2.70;99.90;;;;;;5015559;28;20180;-70
2022/04/03 03:35:13;;;;;;;0.70;0.40;;;2.60;99.90;;;;;;5015253;28;20684;-72
2022/04/03 03:37:39;;;;;;;0.73;0.60;;;2.60;99.90;;;;;;5015232;28;20430;-70
2022/04/03 03:40:06;;;;;;;0.70;0.53;;;2.60;99.90;;;;;;5015589;28;20784;-71
2022/04/03 03:42:32;;;;;;;0.70;0.50;;;2.60;99.90;;;;;;5015255;28;20407;-71
2022/04/03 03:44:58;;;;;;;0.70;0.50;;;2.60;99.90;;;;;;5015146;28;20474;-70
2022/04/03 03:47:24;;;;;;;0.70;0.50;;;2.60;99.90;;;;;;5014987;28;20403;-70
2022/04/03 03:49:50;;;;;;;0.70;0.50;;;2.50;99.90;;;;;;5013810;28;20466;-70
2022/04/03 03:52:15;;;;;;;0.80;0.70;;;2.50;99.90;;;;;;5015036;28;20172;-70
2022/04/03 03:54:41;;;;;;;0.70;0.50;;;2.50;99.90;;;;;;5014852;28;20191;-70
2022/04/03 03:57:07;;;;;;;0.70;0.40;;;2.50;99.90;;;;;;5015009;28;20187;-71
2022/04/03 03:59:32;;;;;;;0.70;0.50;;;2.50;99.90;;;;;;5014888;28;20231;-70
2022/04/03 04:02:00;;;;;;;0.70;0.50;;;2.50;99.90;;;;;;5014901;28;20728;-69
2022/04/03 04:04:25;;;;;;;0.70;0.50;;;2.40;99.90;;;;;;5013429;28;20202;-69
2022/04/03 04:06:51;;;;;;;3.90;1.00;;;2.40;99.90;;;;;;5014752;28;20510;-69
2022/04/03 04:09:16;;;;;;;0.70;0.50;;;2.40;99.90;;;;;;5013257;28;20168;-69
2022/04/03 04:11:42;;;;;;;0.70;0.50;;;2.30;99.90;;;;;;5014676;28;20172;-69
2022/04/03 04:14:07;;;;;;;0.70;0.50;;;2.30;99.90;;;;;;5013397;28;20175;-69
2022/04/03 04:16:33;;;;;;;0.80;0.50;;;2.30;99.90;;;;;;5014506;28;20199;-69
2022/04/03 04:18:59;;;;;;;0.70;0.50;;;2.30;99.90;;;;;;5014335;28;20168;-69
2022/04/03 04:21:24;;;;;;;1.30;1.20;;;2.30;99.90;;;;;;5014892;28;20169;-70
2022/04/03 04:23:50;;;;;;;0.70;0.40;;;2.20;99.90;;;;;;5013723;28;20463;-69
2022/04/03 04:26:16;;;;;;;0.70;0.50;;;2.20;99.90;;;;;;5014610;28;20192;-69
2022/04/03 04:28:42;;;;;;;1.13;1.03;;;2.20;99.90;;;;;;5012876;28;20179;-71
2022/04/03 04:31:07;;;;;;;0.97;0.87;;;2.20;99.90;;;;;;5014415;28;20167;-73
2022/04/03 04:33:33;;;;;;;0.70;0.50;;;2.20;99.90;;;;;;5014391;28;20877;-70
2022/04/03 04:35:58;;;;;;;0.70;0.60;;;2.20;99.90;;;;;;5013125;28;20664;-69
2022/04/03 04:38:24;;;;;;;0.70;0.50;;;2.10;99.90;;;;;;5014177;28;20164;-70
2022/04/03 04:40:49;;;;;;;0.70;0.50;;;2.10;99.90;;;;;;5014471;28;20227;-70
2022/04/03 04:43:15;;;;;;;0.70;0.50;;;2.10;99.90;;;;;;5014336;28;20195;-69
2022/04/03 04:45:40;;;;;;;0.73;0.60;;;2.10;99.90;;;;;;5014057;28;20565;-69
2022/04/03 04:48:06;;;;;;;0.70;0.60;;;2.10;99.90;;;;;;5013742;28;20172;-70
2022/04/03 04:50:32;;;;;;;0.70;0.50;;;2.10;99.90;;;;;;5013398;28;20210;-71
2022/04/03 04:52:58;;;;;;;0.90;0.80;;;2.10;99.90;;;;;;5014095;28;20605;-70
2022/04/03 04:55:25;;;;;;;0.70;0.50;;;2.10;99.90;;;;;;5012712;28;20684;-70
2022/04/03 04:57:56;;;;;;;0.70;0.50;;;2.10;99.90;;;;;;5013753;28;20408;-69
2022/04/03 05:00:23;;;;;;;0.70;0.50;;;2.00;99.90;;;;;;5014048;28;20442;-71
2022/04/03 05:02:49;;;;;;;0.77;0.60;;;2.00;99.90;;;;;;5012349;28;20455;-69
2022/04/03 05:05:18;;;;;;;0.70;0.50;;;2.00;99.90;;;;;;5013677;28;20467;-70
2022/04/03 05:07:49;;;;;;;0.70;0.60;;;2.00;99.90;;;;;;5013350;28;20437;-69
2022/04/03 05:10:16;;;;;;;0.70;0.50;;;2.00;99.90;;;;;;5012440;28;20988;-71
2022/04/03 05:12:43;;;;;;;0.70;0.50;;;2.00;99.90;;;;;;5013695;28;20413;-70
2022/04/03 05:15:11;;;;;;;0.70;0.50;;;2.00;99.90;;;;;;5012374;28;20438;-70
2022/04/03 05:17:38;;;;;;;0.70;0.50;;;1.90;99.90;;;;;;5013463;28;20406;-70
2022/04/03 05:20:04;;;;;;;0.70;0.50;;;1.90;99.90;;;;;;5012382;28;20415;-70
2022/04/03 05:22:30;;;;;;;0.70;0.50;;;1.90;99.90;;;;;;5013179;28;20414;-70
2022/04/03 05:24:55;;;;;;;0.70;0.50;;;1.80;99.90;;;;;;5013305;28;20473;-70
2022/04/03 05:27:21;;;;;;;0.70;0.50;;;1.80;99.90;;;;;;5011863;28;20172;-70
2022/04/03 05:29:47;;;;;;;0.70;0.50;;;1.70;99.90;;;;;;5011907;28;20211;-69
2022/04/03 05:32:12;;;;;;;0.70;0.50;;;1.70;99.90;;;;;;5013246;28;20838;-68
2022/04/03 05:34:39;;;;;;;0.70;0.50;;;1.70;99.90;;;;;;5012783;28;20235;-69
2022/04/03 05:37:05;;;;;;;0.70;0.60;;;1.70;99.90;;;;;;5013110;28;20203;-69
2022/04/03 05:39:31;;;;;;;0.70;0.50;;;1.70;99.90;;;;;;5012838;28;20446;-69
2022/04/03 05:41:56;;;;;;;0.87;0.87;;;1.70;99.90;;;;;;5013062;28;20466;-68
2022/04/03 05:44:23;;;;;;;0.70;0.50;;;1.70;99.90;;;;;;5012994;28;20541;-68
2022/04/03 05:46:49;;;;;;;0.70;0.50;;;1.70;99.90;;;;;;5012874;28;20191;-69
2022/04/03 05:49:15;;;;;;;0.83;0.60;;;1.80;99.90;;;;;;5012694;28;20404;-71
2022/04/03 05:51:41;;;;;;;0.70;0.50;;;1.80;99.90;;;;;;5011578;28;20822;-71
2022/04/03 05:54:07;;;;;;;0.97;0.83;;;1.90;99.90;;;;;;5012819;28;20866;-69
2022/04/03 05:56:32;;;;;;;0.70;0.50;;;1.90;99.90;;;;;;5012693;28;20191;-69
2022/04/03 05:58:58;;;;;;;0.70;0.50;;;1.90;99.90;;;;;;5012522;28;20175;-72
2022/04/03 06:01:24;;;;;;;0.70;0.50;;;2.00;99.90;;;;;;5012824;28;20176;-70
2022/04/03 06:03:50;;;;;;;0.70;0.50;;;2.10;99.90;;;;;;5012583;28;20306;-70
2022/04/03 06:06:16;;;;;;;0.70;0.50;;;2.10;99.90;;;;;;5012641;28;20558;-69
2022/04/03 06:08:42;;;;;;;0.70;0.40;;;2.20;99.90;;;;;;5012379;28;20403;-70
2022/04/03 06:11:07;;;;;;;0.70;0.50;;;2.30;99.90;;;;;;5011318;28;20786;-70
2022/04/03 06:13:33;;;;;;;0.70;0.50;;;2.30;99.90;;;;;;5012433;28;20210;-69
2022/04/03 06:15:59;;;;;;;0.70;0.50;;;2.40;99.90;;;;;;5012519;28;20224;-69
2022/04/03 06:18:24;;;;;;;0.70;0.50;;;2.50;99.90;;;;;;5012296;28;20172;-70
2022/04/03 06:20:51;;;;;;;0.70;0.60;;;2.70;99.90;;;;;;5012606;28;20238;-69
2022/04/03 06:23:22;;;;;;;0.70;0.50;;;2.90;99.90;;;;;;5012499;28;20196;-71
2022/04/03 06:25:52;;;;;;;0.70;0.50;;;3.30;99.90;;;;;;5011112;28;20441;-70
2022/04/03 06:28:18;;;;;;;0.80;0.70;;;3.80;99.90;;;;;;5012457;28;20815;-71
2022/04/03 06:30:44;;;;;;;0.70;0.50;;;4.30;99.90;;;;;;5011074;28;20415;-71
2022/04/03 06:33:10;;;;;;;0.70;0.50;;;4.70;99.90;;;;;;5012422;28;20259;-71
2022/04/03 06:35:35;;;;;;;0.90;0.80;;;4.90;99.90;;;;;;5012230;28;20951;-71
2022/04/03 06:38:01;;;;;;;0.70;0.60;;;5.10;99.90;;;;;;5012118;28;20403;-71
2022/04/03 06:40:27;;;;;;;1.27;1.17;;;5.20;99.90;;;;;;5012230;28;20172;-70
2022/04/03 06:42:53;;;;;;;0.70;0.50;;;5.10;99.90;;;;;;5012264;28;20521;-70
2022/04/03 06:45:19;;;;;;;0.70;0.50;;;5.10;99.90;;;;;;5012257;28;20181;-73
2022/04/03 06:47:44;;;;;;;1.07;0.93;;;5.20;99.90;;;;;;5013651;28;20395;-70
2022/04/03 06:50:10;;;;;;;0.70;0.50;;;5.30;99.90;;;;;;5016192;28;20399;-69
2022/04/03 06:52:36;;;;;;;0.83;0.70;;;5.70;99.90;;;;;;5016301;28;20160;-70
2022/04/03 06:55:03;;;;;;;0.70;0.50;;;6.00;99.90;;;;;;5016402;28;20434;-69
2022/04/03 06:57:29;;;;;;;1.57;0.87;;;6.60;99.90;;;;;;5016141;28;20207;-70
2022/04/03 06:59:54;;;;;;;1.13;1.03;;;7.20;99.90;;;;;;5016105;28;20489;-71
2022/04/03 07:02:20;;;;;;;0.80;0.60;;;8.20;99.90;;;;;;5016036;28;20160;-72
2022/04/03 07:04:45;;;;;;;0.80;0.60;;;9.10;99.90;;;;;;5015787;28;20196;-71
2022/04/03 07:07:11;;;;;;;1.10;0.63;;;9.80;99.90;;;;;;5016340;28;20226;-71
2022/04/03 07:09:40;;;;;;;1.97;1.87;;;10.60;99.90;;;;;;5015636;28;20236;-72
2022/04/03 07:12:07;;;;;;;1.10;1.00;;;11.60;99.90;;;;;;5015842;28;20175;-71
2022/04/03 07:14:33;;;;;;;1.20;0.60;;;12.60;96.70;;;;;;5015750;28;20411;-71
2022/04/03 07:16:58;;;;;;;3.50;1.10;;;13.30;92.00;;;;;;5015726;28;20433;-70
2022/04/03 07:19:24;;;;;;;1.10;1.00;;;14.00;84.90;;;;;;5015495;28;20564;-70
2022/04/03 07:21:50;;;;;;;1.87;1.03;;;14.60;76.50;;;;;;5015633;28;20168;-71
2022/04/03 07:24:17;;;;;;;1.40;1.30;;;15.20;68.90;;;;;;5015541;28;20629;-71
2022/04/03 07:26:43;;;;;;;1.30;1.20;;;15.90;64.80;;;;;;5015511;28;20184;-71
2022/04/03 07:29:08;;;;;;;1.00;0.90;;;16.60;60.60;;;;;;5015289;28;20403;-71
2022/04/03 07:31:34;;;;;;;1.00;0.80;;;17.30;58.00;;;;;;5015487;28;20582;-71
2022/04/03 07:34:00;;;;;;;0.90;0.80;;;18.10;55.00;;;;;;5015374;28;20310;-71
2022/04/03 07:36:25;;;;;;;1.03;0.90;;;18.90;51.90;;;;;;5015326;28;20283;-71
2022/04/03 07:38:52;;;;;;;5.23;1.30;;;19.70;49.70;;;;;;5014964;28;20198;-72
2022/04/03 07:41:19;;;;;;;3.27;1.03;;;20.40;48.50;;;;;;5015501;28;20173;-72
2022/04/03 07:43:44;;;;;;;2.00;1.30;;;21.10;47.60;;;;;;5015097;28;20454;-71
2022/04/03 07:46:15;;;;;;;2.90;2.50;;;21.60;45.00;;;;;;5015798;28;20522;-71
2022/04/03 07:48:40;;;;;;;1.23;0.90;;;22.10;45.40;;;;;;5034649;28;20647;-71
2022/04/03 07:51:06;;;;;;;1.77;1.43;;;22.60;43.90;;;;;;5034920;28;20449;-72
2022/04/03 07:53:31;;;;;;;1.10;1.00;;;23.10;42.50;;;;;;5034665;28;20249;-71
2022/04/03 07:55:57;;;;;;;1.07;0.97;;;23.60;40.70;;;;;;5033369;28;20200;-70
2022/04/03 07:58:22;;;;;;;2.33;1.70;;;23.80;38.70;;;;;;5034113;28;20247;-71
2022/04/03 08:00:48;;;;;;;1.73;1.03;;;24.00;38.20;;;;;;5034684;28;20170;-72
2022/04/03 08:03:14;;;;;;;1.90;1.70;;;24.30;37.50;;;;;;5033179;28;20301;-71
2022/04/03 08:05:40;;;;;;;1.50;1.10;;;24.90;36.90;;;;;;5033596;28;20728;-71
2022/04/03 08:08:06;;;;;;;1.20;1.10;;;25.40;36.60;;;;;;5034199;28;20498;-71
2022/04/03 08:10:32;;;;;;;1.23;1.13;;;25.90;36.10;;;;;;5034586;28;20504;-72
2022/04/03 08:12:57;;;;;;;1.00;0.90;;;26.30;34.70;;;;;;5034441;28;20168;-71
2022/04/03 08:15:24;;;;;;;1.67;1.40;;;26.90;33.50;;;;;;5034313;28;20553;-71
2022/04/03 08:17:49;;;;;;;1.30;1.20;;;27.40;32.60;;;;;;5034117;28;20167;-71
2022/04/03 08:20:17;;;;;;;2.33;2.00;;;27.90;32.80;;;;;;5034354;28;20904;-72
2022/04/03 08:22:44;;;;;;;1.70;1.30;;;28.40;31.50;;;;;;5034181;28;20196;-71
2022/04/03 08:25:12;;;;;;;1.63;1.53;;;28.80;30.00;;;;;;5034197;28;20418;-71
2022/04/03 08:27:47;;;;;;;1.27;1.17;;;29.50;30.00;;;;;;5033922;28;20398;-72
2022/04/03 08:30:16;;;;;;;1.67;1.57;;;29.90;29.20;;;;;;5034289;28;20938;-72
2022/04/03 08:32:42;;;;;;;1.83;1.10;;;30.40;29.10;;;;;;5034146;28;20413;-71
2022/04/03 08:35:09;;;;;;;1.67;1.43;;;30.90;28.80;;;;;;5034048;28;20427;-72
2022/04/03 08:37:35;;;;;;;1.60;1.30;;;31.10;27.90;;;;;;5033897;28;20992;-72
2022/04/03 08:40:05;;;;;;;1.70;1.17;;;31.50;27.60;;;;;;5034235;28;20934;-71
2022/04/03 08:42:31;;;;;;;1.93;1.83;;;31.80;27.20;;;;;;5033951;28;20446;-72
2022/04/03 08:44:58;;;;;;;2.50;2.30;;;32.20;27.20;;;;;;5033812;28;20429;-72
2022/04/03 08:47:25;;;;;;;1.70;1.60;;;32.60;27.20;;;;;;5033768;28;20394;-72
2022/04/03 08:49:56;;;;;;;1.70;1.57;;;32.80;26.20;;;;;;5033550;28;20402;-71
2022/04/03 08:52:22;;;;;;;1.40;1.10;;;33.00;26.30;;;;;;5033792;28;20395;-72
2022/04/03 08:54:48;;;;;;;1.10;1.00;;;33.30;25.70;;;;;;5033583;28;20430;-72
2022/04/03 08:57:14;;;;;;;1.83;1.40;;;33.70;25.90;;;;;;5033678;28;20398;-72
2022/04/03 08:59:40;;;;;;;1.60;1.27;;;33.90;25.20;;;;;;5033307;28;20850;-72
2022/04/03 09:02:05;;;;;;;1.73;1.07;;;34.20;25.10;;;;;;5032391;28;20175;-72
2022/04/03 09:04:31;;;;;;;1.50;1.17;;;34.40;25.10;;;;;;5032126;28;20209;-71
2022/04/03 09:06:59;;;;;;;1.00;0.83;;;34.60;25.20;;;;;;5033312;28;20266;-71
2022/04/03 09:09:26;;;;;;;1.10;1.00;;;34.80;24.90;;;;;;5032776;28;20414;-70
2022/04/03 09:12:07;;;;;;;1.97;1.33;;;35.10;24.80;;;;;;5032982;28;20460;-71
2022/04/03 09:14:34;;;;;;;1.23;1.13;;;35.30;24.80;;;;;;5033170;28;20410;-71
2022/04/03 09:17:00;;;;;;;1.40;1.30;;;35.60;24.50;;;;;;5032013;28;20780;-71
2022/04/03 09:19:34;;;;;;;1.27;1.17;;;35.80;23.50;;;;;;5033040;28;20414;-71
2022/04/03 09:22:00;;;;;;;2.60;1.17;;;35.80;23.20;;;;;;5017769;28;20837;-71
2022/04/03 09:24:25;;;;;;;1.23;1.10;;;35.90;23.20;;;;;;5013294;28;20466;-71
2022/04/03 09:26:59;;;;;;;3.07;1.20;;;36.10;23.30;;;;;;5013260;28;20924;-71
2022/04/03 09:29:25;;;;;;;1.20;1.03;;;36.30;23.30;;;;;;5012985;28;20191;-71
2022/04/03 09:32:00;;;;;;;1.47;1.20;;;36.50;23.00;;;;;;5013204;28;20407;-72
2022/04/03 09:34:29;;;;;;;1.33;1.23;;;36.70;22.90;;;;;;5013184;28;20402;-71
2022/04/03 09:36:59;;;;;;;2.00;1.10;;;36.90;22.50;;;;;;5013100;28;20439;-72
2022/04/03 09:39:30;;;;;;;1.33;1.23;;;37.10;21.90;;;;;;5012825;28;20747;-71
2022/04/03 09:42:12;;;;;;;1.40;1.30;;;37.40;22.30;;;;;;5013093;28;20414;-71
2022/04/03 09:44:44;;;;;;;1.17;1.07;;;37.10;22.20;;;;;;5012893;28;20470;-71
2022/04/03 09:47:29;;;;;;;1.67;1.37;;;36.70;21.50;;;;;;5013011;28;20545;-72
2022/04/03 09:50:06;;;;;;;1.47;1.30;;;36.60;21.70;;;;;;5012684;28;20766;-71
2022/04/03 09:52:37;;;;;;;2.23;1.20;;;35.70;21.10;;;;;;5012932;28;20407;-71
2022/04/03 09:55:12;;;;;;;2.93;2.10;;;34.10;21.60;;;;;;5012640;28;20858;-70
2022/04/03 09:57:38;;;;;;;1.20;0.93;;;32.40;21.40;;;;;;5012787;28;20399;-70
2022/04/03 10:00:05;;;;;;;2.20;1.13;;;30.70;21.60;;;;;;5012553;28;20434;-70
2022/04/03 10:02:31;;;;;;;1.27;0.90;;;29.40;22.50;;;;;;5012933;28;20176;-71
2022/04/03 10:04:57;;;;;;;1.67;0.87;;;29.20;23.70;;;;;;5012484;28;20960;-70
2022/04/03 10:07:24;;;;;;;1.30;1.00;;;29.90;24.10;;;;;;5012672;28;20212;-71
2022/04/03 10:09:52;;;;;;;2.33;2.10;;;31.00;23.00;;;;;;5012341;28;20410;-71
2022/04/03 10:12:22;;;;;;;2.67;1.43;;;31.90;22.80;;;;;;5012698;28;20411;-70
2022/04/03 10:14:50;;;;;;;1.53;1.43;;;32.20;22.60;;;;;;5012467;28;20504;-71
2022/04/03 10:17:17;;;;;;;1.20;1.10;;;32.80;22.60;;;;;;5012493;28;20419;-71
2022/04/03 10:19:43;;;;;;;1.27;1.17;;;33.90;22.40;;;;;;5011024;28;20476;-72
2022/04/03 10:22:31;;;;;;;1.17;1.07;;;35.10;22.10;;;;;;5012488;28;20403;-72
2022/04/03 10:25:02;;;;;;;2.80;1.53;;;36.30;21.80;;;;;;5012346;28;20597;-70
2022/04/03 10:27:35;;;;;;;1.50;1.40;;;37.50;21.30;;;;;;5012388;28;20403;-71
2022/04/03 10:30:00;;;;;;;1.70;1.43;;;38.30;21.00;;;;;;5012185;28;20414;-71
2022/04/03 10:32:30;;;;;;;1.40;1.30;;;38.40;20.60;;;;;;5012431;28;20889;-72
2022/04/03 10:35:07;;;;;;;1.43;1.33;;;38.00;20.60;;;;;;5012238;28;20184;-71
2022/04/03 10:37:38;;;;;;;1.40;1.10;;;37.10;20.50;;;;;;5012321;28;20403;-72
2022/04/03 10:40:16;;;;;;;0.90;0.80;;;36.30;20.50;;;;;;5011779;28;20474;-70
2022/04/03 10:42:53;;;;;;;1.10;0.80;;;35.30;20.30;;;;;;5012172;28;20509;-70
2022/04/03 10:45:19;;;;;;;1.10;1.00;;;34.80;21.10;;;;;;5012044;28;20437;-72
2022/04/03 10:47:47;;;;;;;1.40;0.90;;;35.20;21.30;;;;;;5012121;28;20824;-70
2022/04/03 10:50:13;;;;;;;1.00;0.80;;;35.30;20.60;;;;;;5012004;28;20502;-71
2022/04/03 10:52:40;;;;;;;2.00;1.00;;;34.70;20.40;;;;;;5012074;28;20742;-71
2022/04/03 10:55:31;;;;;;;1.10;1.00;;;33.90;20.70;;;;;;5012090;28;20458;-71
2022/04/03 10:58:06;;;;;;;1.47;1.03;;;33.20;20.90;;;;;;5010556;28;20869;-70
2022/04/03 11:00:34;;;;;;;1.10;0.87;;;32.30;21.10;;;;;;5012253;28;20402;-70
2022/04/03 11:03:21;;;;;;;1.20;0.97;;;31.60;21.30;;;;;;5011981;28;20453;-70
2022/04/03 11:05:47;;;;;;;1.20;1.10;;;31.10;21.50;;;;;;5011782;28;20439;-72
2022/04/03 11:08:13;;;;;;;1.10;0.83;;;30.90;22.10;;;;;;5011704;28;20861;-71
2022/04/03 11:10:52;;;;;;;1.20;0.80;;;31.30;21.90;;;;;;5011950;28;20406;-71
2022/04/03 11:13:18;;;;;;;2.07;0.93;;;31.80;22.20;;;;;;5011865;28;20529;-71
2022/04/03 11:15:54;;;;;;;1.50;0.87;;;31.60;22.10;;;;;;5012299;28;20501;-70
2022/04/03 11:18:29;;;;;;;1.00;0.80;;;31.00;22.40;;;;;;5011958;28;20935;-71
2022/04/03 11:21:23;;;;;;;1.03;0.80;;;30.60;22.90;;;;;;5011982;28;20398;-71
2022/04/03 11:23:53;;;;;;;1.53;1.40;;;30.50;23.20;;;;;;5011733;28;20454;-72
2022/04/03 11:26:20;;;;;;;2.23;1.33;;;30.40;23.10;;;;;;5011691;28;20434;-70
2022/04/03 11:28:46;;;;;;;2.10;1.47;;;30.60;23.40;;;;;;5011555;28;20418;-72
2022/04/03 11:31:12;;;;;;;0.97;0.73;;;31.00;23.40;;;;;;5011698;28;20779;-72
2022/04/03 11:33:38;;;;;;;0.90;0.70;;;31.50;23.50;;;;;;5013081;28;20497;-72
2022/04/03 11:36:06;;;;;;;1.53;1.30;;;31.60;23.20;;;;;;5013964;28;20439;-71
2022/04/03 11:38:36;;;;;;;1.50;1.40;;;31.50;22.80;;;;;;5015038;28;20403;-72
2022/04/03 11:41:04;;;;;;;1.00;0.80;;;31.30;22.70;;;;;;5015729;28;20414;-71
2022/04/03 11:43:29;;;;;;;1.67;0.90;;;31.50;22.90;;;;;;5015062;28;20542;-71
2022/04/03 11:46:01;;;;;;;0.90;0.70;;;32.00;22.70;;;;;;5015141;28;20581;-70
2022/04/03 11:48:31;;;;;;;1.00;0.80;;;32.50;22.70;;;;;;5014827;28;20537;-70
2022/04/03 11:51:19;;;;;;;1.70;1.60;;;33.50;22.60;;;;;;5013811;28;20422;-70
2022/04/03 11:53:47;;;;;;;1.10;0.93;;;35.50;22.50;;;;;;5014994;28;20438;-71
2022/04/03 11:56:17;;;;;;;1.10;1.00;;;36.80;21.50;;;;;;5014905;28;20434;-70
2022/04/03 11:58:49;;;;;;;1.60;1.17;;;37.40;21.20;;;;;;5014799;28;20407;-70
2022/04/03 12:01:29;;;;;;;2.90;1.13;;;37.80;21.10;;;;;;5014833;28;20889;-70
2022/04/03 12:04:14;;;;;;;1.10;1.00;;;37.70;21.30;;;;;;5014851;28;20482;-70
2022/04/03 12:06:42;;;;;;;1.10;1.00;;;38.00;21.40;;;;;;5014778;28;20423;-71
2022/04/03 12:09:09;;;;;;;1.13;1.03;;;39.50;21.80;;;;;;5014556;28;20494;-71
2022/04/03 12:11:36;;;;;;;1.00;0.90;;;41.00;21.00;;;;;;5014688;28;20480;-71
2022/04/03 12:14:04;;;;;;;1.03;0.93;;;42.30;20.30;;;;;;5014657;28;20435;-71
2022/04/03 12:16:34;;;;;;;1.17;1.07;;;42.90;20.10;;;;;;5014647;28;20459;-71
2022/04/03 12:19:08;;;;;;;0.93;0.83;;;43.00;20.20;;;;;;5014271;28;20490;-71
2022/04/03 12:21:56;;;;;;;1.20;1.10;;;44.30;20.70;;;;;;5014618;28;20408;-72
2022/04/03 12:24:26;;;;;;;1.27;1.17;;;46.00;20.10;;;;;;5014418;28;20388;-71
2022/04/03 12:26:56;;;;;;;1.30;1.20;;;47.40;19.60;;;;;;5014334;28;20434;-71
2022/04/03 12:29:25;;;;;;;1.20;1.10;;;48.40;19.60;;;;;;5014203;28;20454;-72
2022/04/03 12:31:58;;;;;;;1.20;1.10;;;49.10;18.90;;;;;;5014373;28;20374;-72
2022/04/03 12:34:24;;;;;;;1.10;1.00;;;47.70;18.50;;;;;;5014232;28;20429;-72
2022/04/03 12:36:52;;;;;;;1.30;1.20;;;46.70;18.90;;;;;;5014105;28;20405;-72
2022/04/03 12:39:30;;;;;;;1.40;1.23;;;47.20;18.90;;;;;;5014048;28;20411;-71
2022/04/03 12:41:56;;;;;;;1.43;1.33;;;47.20;18.90;;;;;;5014219;28;20403;-72
2022/04/03 12:44:22;;;;;;;1.40;1.30;;;47.60;18.80;;;;;;5013491;28;20940;-71
2022/04/03 12:46:48;;;;;;;2.17;1.50;;;46.20;18.20;;;;;;5013525;28;20439;-71
2022/04/03 12:49:18;;;;;;;1.20;1.03;;;44.10;18.30;;;;;;5013745;28;20634;-72
2022/04/03 12:51:45;;;;;;;1.00;0.90;;;42.50;18.90;;;;;;5013988;28;20766;-72
2022/04/03 12:54:11;;;;;;;1.10;1.00;;;42.80;19.00;;;;;;5013692;28;20459;-71